Time;durP1;ratioP1;P1;durP2;ratioP2;P2;SDS_P1;SDS_P2;PMS_P1;PMS_P2;Temp;Humidity;BMP_temperature;BMP_pressure;BME280_temperature;BME280_humidity;BME280_pressure;Samples;Min_cycle;Max_cycle;Signal;HPM_P1;HPM_P2
2023/10/19 00:02:07;;;;;;;5.43;4.15;;;19.70;54.30;;;;;;5035745;28;20203;-80
2023/10/19 00:04:35;;;;;;;5.95;4.13;;;19.70;54.30;;;;;;5035083;28;20192;-80
2023/10/19 00:07:04;;;;;;;6.28;4.45;;;19.70;54.30;;;;;;5035569;28;20211;-80
2023/10/19 00:09:37;;;;;;;5.10;4.30;;;19.70;54.40;;;;;;5035426;28;20212;-80
2023/10/19 00:12:05;;;;;;;5.30;4.05;;;19.70;54.30;;;;;;5035389;28;20242;-81
2023/10/19 00:14:32;;;;;;;5.53;4.10;;;19.70;54.40;;;;;;5035202;28;20208;-81
2023/10/19 00:17:05;;;;;;;4.10;3.70;;;19.70;54.40;;;;;;5035918;28;20286;-81
2023/10/19 00:19:39;;;;;;;4.97;4.07;;;19.70;54.40;;;;;;5036130;28;20365;-81
2023/10/19 00:22:08;;;;;;;4.65;4.15;;;19.70;54.40;;;;;;5035582;28;20723;-81
2023/10/19 00:24:37;;;;;;;4.53;3.72;;;19.70;54.40;;;;;;5036073;28;20199;-81
2023/10/19 00:27:14;;;;;;;5.60;3.83;;;19.70;54.50;;;;;;5035664;28;20202;-81
2023/10/19 00:29:48;;;;;;;6.93;4.28;;;19.70;54.50;;;;;;5020385;28;20618;-81
2023/10/19 00:32:15;;;;;;;5.07;4.18;;;19.70;54.40;;;;;;5034883;28;20581;-81
2023/10/19 00:34:43;;;;;;;4.93;4.05;;;19.70;54.50;;;;;;5035002;28;20237;-81
2023/10/19 00:37:10;;;;;;;5.10;3.50;;;19.60;54.40;;;;;;5027298;28;20196;-81
2023/10/19 00:39:43;;;;;;;5.75;3.90;;;19.70;54.50;;;;;;5034572;28;20227;-81
2023/10/19 00:42:10;;;;;;;5.57;3.92;;;19.70;54.40;;;;;;5017998;28;20207;-81
2023/10/19 00:44:42;;;;;;;5.95;4.25;;;19.70;54.40;;;;;;5032604;28;20203;-81
2023/10/19 00:47:13;;;;;;;5.28;3.67;;;19.60;54.40;;;;;;5034134;28;20181;-81
2023/10/19 00:49:40;;;;;;;5.95;4.10;;;19.60;54.40;;;;;;5033595;28;20640;-81
2023/10/19 00:52:12;;;;;;;4.97;3.78;;;19.70;54.50;;;;;;5034952;28;20192;-81
2023/10/19 00:54:47;;;;;;;6.32;4.22;;;19.70;54.40;;;;;;5034517;28;20690;-81
2023/10/19 00:57:14;;;;;;;4.65;3.90;;;19.60;54.40;;;;;;5034355;28;20250;-81
2023/10/19 00:59:47;;;;;;;4.18;3.78;;;19.60;54.40;;;;;;5034346;28;20215;-81
2023/10/19 01:02:18;;;;;;;4.72;4.10;;;19.60;54.40;;;;;;5035159;28;20550;-81
2023/10/19 01:04:50;;;;;;;5.38;4.20;;;19.60;54.50;;;;;;5033154;28;20192;-81
2023/10/19 01:07:21;;;;;;;4.75;4.20;;;19.60;54.50;;;;;;5032901;28;20289;-81
2023/10/19 01:09:52;;;;;;;4.57;3.67;;;19.60;54.50;;;;;;5034029;28;20274;-81
2023/10/19 01:12:28;;;;;;;4.13;3.72;;;19.60;54.50;;;;;;5017730;28;20200;-81
2023/10/19 01:15:12;;;;;;;5.28;3.85;;;19.60;54.50;;;;;;5033814;28;20602;-81
2023/10/19 01:17:40;;;;;;;5.18;4.20;;;19.60;54.50;;;;;;5035266;28;20196;-81
2023/10/19 01:20:17;;;;;;;4.93;4.15;;;19.60;54.60;;;;;;5038535;28;20270;-81
2023/10/19 01:22:53;;;;;;;6.03;4.00;;;19.60;54.50;;;;;;5039211;28;20284;-81
2023/10/19 01:25:25;;;;;;;4.40;4.00;;;19.60;54.50;;;;;;5038936;28;20195;-81
2023/10/19 01:27:57;;;;;;;4.30;3.90;;;19.60;54.50;;;;;;5023626;28;20299;-81
2023/10/19 01:30:26;;;;;;;4.53;3.55;;;19.50;54.50;;;;;;5039012;28;20717;-81
2023/10/19 01:32:54;;;;;;;6.05;3.97;;;19.50;54.40;;;;;;5038291;28;20200;-81
2023/10/19 01:35:21;;;;;;;4.22;3.60;;;19.50;54.40;;;;;;5021445;28;20212;-81
2023/10/19 01:37:48;;;;;;;6.35;3.80;;;19.50;54.50;;;;;;5037702;28;20210;-81
2023/10/19 01:40:20;;;;;;;4.47;4.05;;;19.50;54.50;;;;;;5020102;28;20237;-81
2023/10/19 01:42:47;;;;;;;4.25;3.80;;;19.50;54.60;;;;;;5036665;28;20191;-81
2023/10/19 01:45:15;;;;;;;5.65;3.50;;;19.50;54.50;;;;;;5036122;28;20222;-81
2023/10/19 01:47:42;;;;;;;4.13;3.58;;;19.50;54.50;;;;;;5035770;28;20215;-81
2023/10/19 01:50:19;;;;;;;4.13;3.80;;;19.50;54.60;;;;;;5019451;28;20728;-81
2023/10/19 01:52:48;;;;;;;4.40;3.67;;;19.50;54.60;;;;;;5035710;28;20203;-81
2023/10/19 01:55:20;;;;;;;4.75;3.83;;;19.50;54.60;;;;;;5035335;28;20258;-81
2023/10/19 01:57:47;;;;;;;4.15;3.60;;;19.50;54.60;;;;;;5035383;28;20220;-81
2023/10/19 02:00:17;;;;;;;4.25;3.60;;;19.50;54.70;;;;;;5035173;28;20682;-81
2023/10/19 02:02:44;;;;;;;5.75;3.80;;;19.50;54.60;;;;;;5035319;28;20196;-81
2023/10/19 02:05:15;;;;;;;5.03;3.83;;;19.40;54.60;;;;;;5035707;28;20212;-81
2023/10/19 02:07:41;;;;;;;4.40;3.75;;;19.40;54.60;;;;;;5035868;28;20200;-81
2023/10/19 02:10:10;;;;;;;5.38;3.90;;;19.50;54.60;;;;;;5019708;28;20258;-81
2023/10/19 02:12:39;;;;;;;4.40;3.63;;;19.50;54.70;;;;;;5036082;28;20219;-81
2023/10/19 02:15:08;;;;;;;4.32;3.92;;;19.40;54.60;;;;;;5036525;28;20212;-81
2023/10/19 02:17:35;;;;;;;4.20;3.75;;;19.40;54.60;;;;;;5043077;28;20207;-80
2023/10/19 02:20:02;;;;;;;4.35;3.75;;;19.40;55.20;;;;;;5036867;28;20682;-81
2023/10/19 02:22:28;;;;;;;3.95;3.63;;;19.40;54.60;;;;;;5035444;28;20207;-81
2023/10/19 02:24:55;;;;;;;3.47;3.17;;;19.50;54.70;;;;;;5035594;28;20188;-80
2023/10/19 02:27:23;;;;;;;3.72;3.42;;;19.40;54.70;;;;;;5020103;28;20228;-80
2023/10/19 02:29:50;;;;;;;4.35;3.95;;;19.40;54.60;;;;;;5035071;28;20220;-80
2023/10/19 02:32:18;;;;;;;4.07;3.55;;;19.40;54.70;;;;;;5035301;28;20200;-80
2023/10/19 02:34:46;;;;;;;4.95;3.75;;;19.40;54.70;;;;;;5035239;28;20212;-80
2023/10/19 02:37:12;;;;;;;4.13;3.47;;;19.40;54.70;;;;;;5035919;28;20220;-80
2023/10/19 02:39:39;;;;;;;4.72;3.42;;;19.40;54.80;;;;;;5035072;28;20219;-80
2023/10/19 02:42:08;;;;;;;4.15;3.75;;;19.40;54.80;;;;;;5024756;28;20235;-80
2023/10/19 02:44:37;;;;;;;4.05;3.65;;;19.40;54.80;;;;;;5036418;28;20184;-80
2023/10/19 02:47:08;;;;;;;3.60;3.30;;;19.40;54.80;;;;;;5035030;28;20251;-80
2023/10/19 02:49:39;;;;;;;4.28;3.80;;;19.40;54.80;;;;;;5018058;28;20207;-80
2023/10/19 02:52:05;;;;;;;3.90;3.25;;;19.40;55.30;;;;;;5035135;28;20199;-80
2023/10/19 02:54:34;;;;;;;4.00;3.60;;;19.40;54.80;;;;;;5034839;28;20219;-80
2023/10/19 02:57:00;;;;;;;3.83;3.35;;;19.30;54.60;;;;;;5034714;28;20223;-80
2023/10/19 02:59:28;;;;;;;5.18;3.90;;;19.40;54.80;;;;;;5034521;28;20215;-80
2023/10/19 03:02:01;;;;;;;3.53;3.22;;;19.30;54.70;;;;;;5034618;28;20195;-80
2023/10/19 03:04:29;;;;;;;3.97;3.28;;;19.40;54.80;;;;;;5034513;28;20184;-80
2023/10/19 03:06:56;;;;;;;3.75;3.30;;;19.40;54.80;;;;;;5035045;28;20207;-80
2023/10/19 03:09:28;;;;;;;3.50;3.20;;;19.30;54.70;;;;;;5035285;28;20588;-80
2023/10/19 03:11:59;;;;;;;4.18;3.63;;;19.30;54.70;;;;;;5034370;28;20192;-80
2023/10/19 03:14:26;;;;;;;3.50;3.20;;;19.30;54.80;;;;;;5033790;28;20338;-80
2023/10/19 03:16:54;;;;;;;3.33;2.90;;;19.30;54.80;;;;;;5034155;28;20188;-80
2023/10/19 03:19:24;;;;;;;3.50;3.20;;;19.30;54.80;;;;;;5033824;28;20558;-80
2023/10/19 03:21:51;;;;;;;3.30;3.00;;;19.30;54.80;;;;;;5034106;28;20203;-80
2023/10/19 03:24:35;;;;;;;3.42;3.03;;;19.30;54.80;;;;;;5002029;28;20184;-80
2023/10/19 03:27:01;;;;;;;3.83;2.97;;;19.30;54.90;;;;;;5033821;28;20228;-80
2023/10/19 03:29:31;;;;;;;3.35;3.05;;;19.30;54.90;;;;;;5033869;28;20216;-80
2023/10/19 03:31:59;;;;;;;4.03;2.85;;;19.30;54.80;;;;;;5018212;28;20734;-80
2023/10/19 03:34:31;;;;;;;3.35;3.05;;;19.30;54.70;;;;;;5033309;28;20755;-80
2023/10/19 03:37:05;;;;;;;3.25;2.95;;;19.40;54.60;;;;;;5033670;28;20199;-80
2023/10/19 03:39:36;;;;;;;3.50;3.20;;;19.40;54.50;;;;;;5033809;28;20282;-80
2023/10/19 03:42:05;;;;;;;3.55;3.25;;;19.40;54.40;;;;;;5033252;28;20249;-81
2023/10/19 03:44:43;;;;;;;3.63;3.33;;;19.40;54.20;;;;;;5033404;28;20520;-80
2023/10/19 03:47:14;;;;;;;3.70;3.00;;;19.40;54.10;;;;;;5033685;28;20646;-80
2023/10/19 03:49:43;;;;;;;3.40;3.05;;;19.50;54.80;;;;;;5034227;28;20226;-80
2023/10/19 03:54:54;;;;;;;3.30;3.00;;;19.50;54.20;;;;;;5033777;28;20276;-80
2023/10/19 03:57:22;;;;;;;3.15;2.75;;;19.50;54.20;;;;;;5034379;28;20579;-80
2023/10/19 03:59:52;;;;;;;3.17;2.85;;;19.50;54.10;;;;;;5034881;28;20302;-80
2023/10/19 04:02:20;;;;;;;3.38;3.08;;;19.50;54.10;;;;;;5033855;28;20279;-80
2023/10/19 04:04:49;;;;;;;3.22;2.92;;;19.50;54.00;;;;;;5034051;28;20283;-80
2023/10/19 04:07:20;;;;;;;3.38;2.88;;;19.50;54.00;;;;;;5050128;22;20319;-81
2023/10/19 04:09:59;;;;;;;4.20;3.15;;;19.50;53.90;;;;;;5033639;28;20216;-81
2023/10/19 04:12:28;;;;;;;3.65;2.95;;;19.50;54.00;;;;;;5033262;28;20650;-81
2023/10/19 04:14:56;;;;;;;3.10;2.80;;;19.50;53.90;;;;;;5032799;28;20754;-81
2023/10/19 04:17:23;;;;;;;3.00;2.70;;;19.50;54.00;;;;;;5033190;28;20200;-81
2023/10/19 04:19:52;;;;;;;3.30;3.00;;;19.50;54.00;;;;;;5032725;28;20220;-81
2023/10/19 04:22:23;;;;;;;3.75;3.00;;;19.50;54.00;;;;;;5032782;28;20196;-81
2023/10/19 04:24:50;;;;;;;3.20;2.90;;;19.50;54.00;;;;;;5017851;28;20242;-81
2023/10/19 04:27:17;;;;;;;2.95;2.72;;;19.50;54.10;;;;;;5032865;28;20210;-81
2023/10/19 04:29:45;;;;;;;3.22;2.92;;;19.50;54.00;;;;;;5032473;28;20212;-81
2023/10/19 04:32:14;;;;;;;3.13;2.85;;;19.50;54.10;;;;;;5016414;28;20290;-81
2023/10/19 04:34:41;;;;;;;3.20;2.67;;;19.40;54.00;;;;;;5032986;28;20306;-81
2023/10/19 04:37:12;;;;;;;2.85;2.65;;;19.50;54.20;;;;;;5033673;28;20238;-80
2023/10/19 04:39:40;;;;;;;2.83;2.63;;;19.40;54.10;;;;;;5034015;28;20226;-80
2023/10/19 04:42:07;;;;;;;3.28;2.97;;;19.40;54.10;;;;;;5017378;28;20204;-80
2023/10/19 04:44:34;;;;;;;3.13;2.60;;;19.40;54.10;;;;;;5033532;28;20275;-80
2023/10/19 04:47:02;;;;;;;3.30;2.85;;;19.40;54.10;;;;;;5032985;28;20641;-80
2023/10/19 04:49:29;;;;;;;4.40;2.80;;;19.40;54.10;;;;;;5032992;28;20211;-80
2023/10/19 04:51:56;;;;;;;3.65;2.95;;;19.40;54.10;;;;;;5032526;28;20203;-80
2023/10/19 04:54:24;;;;;;;3.13;2.83;;;19.40;54.10;;;;;;5036518;28;20196;-80
2023/10/19 04:56:55;;;;;;;3.10;2.80;;;19.50;54.20;;;;;;5037441;28;20218;-80
2023/10/19 04:59:22;;;;;;;3.00;2.72;;;19.40;54.10;;;;;;5021633;28;20224;-80
2023/10/19 05:01:50;;;;;;;3.90;2.60;;;19.50;54.70;;;;;;5038702;28;20184;-80
2023/10/19 05:04:18;;;;;;;2.50;2.30;;;19.40;54.10;;;;;;5021126;28;20722;-80
2023/10/19 05:06:45;;;;;;;3.22;2.85;;;19.50;54.20;;;;;;5037754;28;20208;-80
2023/10/19 05:09:13;;;;;;;2.90;2.60;;;19.40;54.00;;;;;;5037767;28;20196;-80
2023/10/19 05:11:42;;;;;;;4.03;2.92;;;19.40;54.10;;;;;;5037778;28;20283;-80
2023/10/19 05:14:08;;;;;;;2.83;2.63;;;19.50;54.10;;;;;;5040597;28;20231;-80
2023/10/19 05:16:36;;;;;;;2.63;2.42;;;19.50;54.00;;;;;;5036636;28;20216;-80
2023/10/19 05:19:04;;;;;;;2.70;2.50;;;19.50;54.00;;;;;;5038362;28;20207;-80
2023/10/19 05:21:31;;;;;;;2.90;2.60;;;19.40;53.90;;;;;;5040102;28;20193;-80
2023/10/19 05:24:00;;;;;;;2.67;2.47;;;19.50;54.00;;;;;;5041699;28;20262;-80
2023/10/19 05:26:28;;;;;;;3.15;2.75;;;19.40;54.00;;;;;;5035918;28;20258;-80
2023/10/19 05:28:56;;;;;;;2.70;2.45;;;19.40;54.00;;;;;;5019610;28;20200;-80
2023/10/19 05:31:24;;;;;;;2.70;2.50;;;19.50;54.00;;;;;;5035802;28;20195;-80
2023/10/19 05:33:53;;;;;;;2.95;2.60;;;19.50;54.00;;;;;;5035776;28;20204;-81
2023/10/19 05:36:19;;;;;;;3.60;2.40;;;19.50;54.00;;;;;;5035816;28;20219;-81
2023/10/19 05:38:47;;;;;;;3.28;2.55;;;19.50;54.00;;;;;;5035538;28;20203;-80
2023/10/19 05:41:14;;;;;;;2.97;2.70;;;19.50;53.90;;;;;;5035609;28;20219;-81
2023/10/19 05:43:41;;;;;;;3.97;2.78;;;19.50;53.90;;;;;;5035348;28;20630;-81
2023/10/19 05:46:10;;;;;;;2.75;2.55;;;19.50;53.90;;;;;;5035580;28;20223;-81
2023/10/19 05:48:37;;;;;;;2.70;2.50;;;19.50;53.90;;;;;;5035341;28;20196;-81
2023/10/19 05:51:04;;;;;;;2.88;2.47;;;19.50;53.90;;;;;;5035255;28;20227;-81
2023/10/19 05:53:32;;;;;;;2.92;2.53;;;19.50;53.80;;;;;;5035346;28;20196;-81
2023/10/19 05:55:59;;;;;;;3.00;2.72;;;19.50;53.80;;;;;;5035317;28;20212;-81
2023/10/19 05:58:26;;;;;;;3.42;2.55;;;19.50;53.80;;;;;;5035190;28;20239;-81
2023/10/19 06:00:53;;;;;;;3.42;2.80;;;19.50;53.90;;;;;;5035327;28;20222;-81
2023/10/19 06:03:22;;;;;;;2.67;2.40;;;19.50;53.90;;;;;;5035683;28;20560;-80
2023/10/19 06:05:49;;;;;;;2.60;2.40;;;19.50;53.90;;;;;;5035091;28;20566;-81
2023/10/19 06:08:16;;;;;;;2.72;2.50;;;19.50;53.90;;;;;;5035307;28;20195;-81
2023/10/19 06:10:43;;;;;;;3.08;2.47;;;19.50;54.00;;;;;;5035601;28;20227;-81
2023/10/19 06:13:10;;;;;;;2.70;2.50;;;19.50;54.00;;;;;;5035895;28;20558;-80
2023/10/19 06:15:38;;;;;;;2.58;2.38;;;19.50;54.50;;;;;;5035216;28;20640;-81
2023/10/19 06:18:05;;;;;;;2.70;2.50;;;19.50;53.90;;;;;;5035153;28;20196;-81
2023/10/19 06:20:33;;;;;;;2.33;2.03;;;19.50;53.90;;;;;;5035365;28;20216;-81
2023/10/19 06:23:04;;;;;;;3.20;2.50;;;19.50;53.80;;;;;;5035687;28;20196;-81
2023/10/19 06:25:31;;;;;;;2.50;2.30;;;19.50;53.80;;;;;;5036708;28;20192;-81
2023/10/19 06:27:59;;;;;;;2.72;2.53;;;19.50;53.70;;;;;;5038784;28;20203;-81
2023/10/19 06:30:27;;;;;;;2.50;2.30;;;19.60;53.80;;;;;;5038254;28;20220;-81
2023/10/19 06:32:55;;;;;;;2.60;2.40;;;19.60;53.70;;;;;;5036407;28;20202;-81
2023/10/19 06:35:22;;;;;;;2.95;2.75;;;19.60;53.70;;;;;;5036199;28;20223;-81
2023/10/19 06:37:50;;;;;;;3.60;2.50;;;19.60;53.60;;;;;;5043251;28;20184;-81
2023/10/19 06:40:18;;;;;;;2.83;2.47;;;19.60;53.60;;;;;;5059239;28;20219;-81
2023/10/19 06:42:46;;;;;;;3.30;2.70;;;19.70;53.70;;;;;;5042859;28;20413;-82
2023/10/19 06:45:14;;;;;;;2.63;2.42;;;19.60;53.60;;;;;;5047345;28;20211;-79
2023/10/19 06:47:42;;;;;;;2.75;2.50;;;19.60;53.60;;;;;;5034670;28;20262;-81
2023/10/19 06:50:10;;;;;;;2.60;2.40;;;19.60;53.60;;;;;;5033845;28;20227;-81
2023/10/19 06:52:38;;;;;;;2.83;2.63;;;19.60;53.60;;;;;;5034697;28;20196;-81
2023/10/19 06:55:13;;;;;;;3.20;2.55;;;19.60;53.50;;;;;;5034261;28;20200;-80
2023/10/19 06:57:43;;;;;;;2.50;2.30;;;19.60;53.50;;;;;;5035098;28;20200;-81
2023/10/19 07:00:14;;;;;;;3.05;2.40;;;19.70;53.60;;;;;;5034816;28;20239;-81
2023/10/19 07:02:42;;;;;;;2.72;2.53;;;19.60;53.50;;;;;;5034179;28;20204;-80
2023/10/19 07:05:11;;;;;;;2.90;2.60;;;19.70;53.60;;;;;;5018297;28;20559;-80
2023/10/19 07:07:39;;;;;;;2.78;2.58;;;19.70;53.50;;;;;;5033889;28;20647;-80
2023/10/19 07:10:09;;;;;;;2.60;2.40;;;19.70;53.50;;;;;;5033774;28;20227;-80
2023/10/19 07:12:36;;;;;;;2.88;2.60;;;19.70;53.50;;;;;;5034292;28;20302;-80
2023/10/19 07:15:07;;;;;;;2.78;2.58;;;19.70;53.50;;;;;;5033584;28;20228;-80
2023/10/19 07:17:34;;;;;;;2.70;2.50;;;19.70;53.50;;;;;;5033668;28;20572;-80
2023/10/19 07:20:03;;;;;;;2.70;2.50;;;19.70;53.50;;;;;;5033931;28;20265;-81
2023/10/19 07:22:31;;;;;;;2.70;2.50;;;19.70;53.40;;;;;;5013475;28;20245;-80
2023/10/19 07:24:58;;;;;;;3.28;3.05;;;19.70;53.50;;;;;;5033565;28;20238;-78
2023/10/19 07:27:28;;;;;;;2.78;2.58;;;19.70;53.40;;;;;;5033751;28;20196;-79
2023/10/19 07:29:55;;;;;;;2.85;2.60;;;19.80;53.50;;;;;;5017217;28;20224;-81
2023/10/19 07:32:22;;;;;;;2.95;2.70;;;19.70;53.50;;;;;;5033638;28;20200;-80
2023/10/19 07:34:49;;;;;;;2.97;2.78;;;19.70;53.60;;;;;;5033700;28;20222;-80
2023/10/19 07:37:16;;;;;;;3.85;3.25;;;19.80;54.10;;;;;;5035171;28;20755;-80
2023/10/19 07:39:46;;;;;;;2.92;2.65;;;19.80;54.60;;;;;;5033839;28;20220;-80
2023/10/19 07:42:12;;;;;;;3.70;3.13;;;19.80;53.90;;;;;;5035762;28;20200;-83
2023/10/19 07:44:41;;;;;;;3.00;2.80;;;19.80;54.00;;;;;;5033524;28;20211;-83
2023/10/19 07:47:09;;;;;;;2.95;2.65;;;19.90;54.00;;;;;;5033481;28;20196;-81
2023/10/19 07:49:38;;;;;;;3.00;2.70;;;19.90;53.90;;;;;;5034089;28;20230;-84
2023/10/19 07:52:06;;;;;;;2.95;2.65;;;20.00;54.00;;;;;;5033651;28;20681;-81
2023/10/19 07:54:33;;;;;;;4.18;2.63;;;20.00;54.00;;;;;;5016614;28;20203;-80
2023/10/19 07:57:03;;;;;;;3.42;2.72;;;20.00;54.60;;;;;;5033408;28;20219;-82
2023/10/19 07:59:30;;;;;;;3.22;2.95;;;20.00;54.40;;;;;;5034052;28;20224;-81
2023/10/19 08:02:01;;;;;;;3.00;2.60;;;20.10;54.60;;;;;;5035274;28;20188;-81
2023/10/19 08:04:28;;;;;;;2.88;2.67;;;20.20;54.80;;;;;;5034243;28;20546;-81
2023/10/19 08:06:55;;;;;;;4.72;3.05;;;20.30;54.80;;;;;;5034196;28;20211;-81
2023/10/19 08:09:23;;;;;;;2.88;2.67;;;20.40;54.90;;;;;;5033535;28;20250;-81
2023/10/19 08:11:55;;;;;;;3.08;2.80;;;20.60;54.70;;;;;;5033822;28;20196;-81
2023/10/19 08:14:22;;;;;;;2.75;2.50;;;20.70;54.40;;;;;;5016821;28;20203;-81
2023/10/19 08:16:49;;;;;;;3.30;3.00;;;20.80;53.60;;;;;;5033621;28;20266;-82
2023/10/19 08:19:18;;;;;;;2.58;2.38;;;20.80;53.30;;;;;;5034401;28;20223;-82
2023/10/19 08:21:45;;;;;;;3.05;2.80;;;20.90;53.10;;;;;;5033963;28;20565;-82
2023/10/19 08:24:13;;;;;;;3.03;2.80;;;20.90;53.00;;;;;;5017368;28;20219;-81
2023/10/19 08:26:41;;;;;;;3.35;2.50;;;21.00;53.00;;;;;;5034879;28;20193;-81
2023/10/19 08:29:12;;;;;;;3.40;2.90;;;21.10;53.40;;;;;;5037846;28;20202;-81
2023/10/19 08:31:40;;;;;;;2.72;2.53;;;21.20;52.70;;;;;;5037917;28;20203;-81
2023/10/19 08:34:09;;;;;;;2.78;2.40;;;21.30;52.50;;;;;;5037661;28;20207;-81
2023/10/19 08:36:38;;;;;;;2.78;2.55;;;21.40;52.30;;;;;;5037821;28;20266;-81
2023/10/19 08:39:06;;;;;;;2.78;2.42;;;21.60;52.40;;;;;;5037390;28;20203;-82
2023/10/19 08:41:34;;;;;;;3.35;2.60;;;21.70;52.10;;;;;;5037925;28;20214;-82
2023/10/19 08:44:02;;;;;;;2.85;2.50;;;21.80;51.80;;;;;;5038705;28;20282;-82
2023/10/19 08:46:29;;;;;;;3.63;2.70;;;21.90;51.70;;;;;;5039977;28;20259;-82
2023/10/19 08:48:57;;;;;;;3.47;2.35;;;22.00;51.30;;;;;;5038441;28;20246;-82
2023/10/19 08:51:25;;;;;;;3.00;2.33;;;22.10;51.60;;;;;;5037937;28;20231;-80
2023/10/19 08:53:54;;;;;;;4.13;2.50;;;22.20;51.70;;;;;;5039266;28;20196;-80
2023/10/19 08:56:23;;;;;;;4.10;2.55;;;22.30;51.70;;;;;;5037952;28;20251;-79
2023/10/19 08:58:51;;;;;;;4.10;2.60;;;22.30;51.30;;;;;;5036908;28;20214;-80
2023/10/19 09:01:19;;;;;;;5.25;2.90;;;22.30;51.20;;;;;;5036696;28;20328;-80
2023/10/19 09:03:47;;;;;;;2.55;2.35;;;22.30;51.20;;;;;;5036875;28;20689;-81
2023/10/19 09:06:15;;;;;;;2.72;2.40;;;22.40;50.80;;;;;;5037923;28;20302;-79
2023/10/19 09:08:44;;;;;;;2.95;2.60;;;22.40;50.60;;;;;;5038729;28;20220;-79
2023/10/19 09:11:14;;;;;;;2.80;2.60;;;22.50;50.60;;;;;;5038258;28;20290;-80
2023/10/19 09:13:45;;;;;;;2.85;2.63;;;22.50;50.80;;;;;;5037745;28;20326;-81
2023/10/19 09:16:11;;;;;;;3.83;2.50;;;22.50;50.80;;;;;;5036711;28;20216;-81
2023/10/19 09:18:38;;;;;;;4.38;2.83;;;22.60;50.30;;;;;;5036042;28;20196;-81
2023/10/19 09:21:11;;;;;;;2.90;2.60;;;22.60;50.50;;;;;;5036481;28;20274;-81
2023/10/19 09:23:38;;;;;;;3.20;2.90;;;22.70;50.20;;;;;;5037092;28;20215;-80
2023/10/19 09:26:07;;;;;;;3.67;2.50;;;22.70;50.10;;;;;;5037996;28;20210;-81
2023/10/19 09:28:37;;;;;;;3.90;2.38;;;22.70;50.20;;;;;;5036553;28;20612;-80
2023/10/19 09:31:05;;;;;;;3.58;2.58;;;22.70;50.60;;;;;;5036189;28;20228;-81
2023/10/19 09:33:33;;;;;;;2.90;2.60;;;22.70;50.70;;;;;;5035997;28;20199;-81
2023/10/19 09:36:01;;;;;;;2.80;2.60;;;22.60;50.60;;;;;;5036190;28;20196;-80
2023/10/19 09:38:28;;;;;;;3.03;2.53;;;22.60;50.60;;;;;;5036641;28;20211;-81
2023/10/19 09:40:55;;;;;;;2.88;2.55;;;22.60;50.90;;;;;;5036054;28;20216;-81
2023/10/19 09:43:26;;;;;;;4.30;2.15;;;22.50;50.80;;;;;;5035970;28;20709;-81
2023/10/19 09:45:54;;;;;;;3.58;2.30;;;22.50;50.70;;;;;;5035206;28;20224;-81
2023/10/19 09:48:22;;;;;;;3.88;2.70;;;22.60;50.60;;;;;;5036553;28;20195;-81
2023/10/19 09:50:54;;;;;;;4.43;2.67;;;22.60;50.50;;;;;;5036000;28;20247;-81
2023/10/19 09:53:23;;;;;;;3.28;2.20;;;22.60;50.70;;;;;;5037524;28;20226;-81
2023/10/19 09:55:50;;;;;;;3.50;2.47;;;22.70;50.50;;;;;;5036460;28;20200;-81
2023/10/19 09:58:18;;;;;;;2.55;2.35;;;22.60;50.30;;;;;;5036884;28;20204;-82
2023/10/19 10:00:46;;;;;;;3.55;2.50;;;22.60;50.20;;;;;;5036503;28;20247;-81
2023/10/19 10:03:45;;;;;;;2.67;2.22;;;22.60;50.20;;;;;;5020386;28;20200;-81
2023/10/19 10:06:13;;;;;;;3.92;2.40;;;22.60;50.40;;;;;;5036216;28;20211;-81
2023/10/19 10:08:42;;;;;;;4.68;2.50;;;22.50;50.20;;;;;;5037499;28;20268;-81
2023/10/19 10:11:17;;;;;;;2.70;2.20;;;22.50;50.20;;;;;;5035502;28;20219;-81
2023/10/19 10:13:45;;;;;;;2.65;2.45;;;22.50;50.30;;;;;;5036136;28;20599;-81
2023/10/19 10:16:14;;;;;;;2.50;2.30;;;22.50;50.40;;;;;;5035854;28;20639;-81
2023/10/19 10:18:41;;;;;;;2.92;2.40;;;22.40;50.30;;;;;;5035964;28;20196;-81
2023/10/19 10:21:12;;;;;;;2.55;2.20;;;22.40;50.40;;;;;;5035185;28;20243;-81
2023/10/19 10:23:43;;;;;;;4.32;2.47;;;22.40;50.30;;;;;;5036200;28;20282;-81
2023/10/19 10:26:14;;;;;;;2.28;2.03;;;22.30;50.40;;;;;;5035489;28;20266;-81
2023/10/19 10:28:41;;;;;;;2.60;2.28;;;22.40;50.40;;;;;;5036347;28;20283;-81
2023/10/19 10:31:15;;;;;;;2.60;2.38;;;22.40;50.50;;;;;;5035804;28;20299;-81
2023/10/19 10:33:48;;;;;;;3.13;2.35;;;22.40;50.50;;;;;;5035493;28;20200;-80
2023/10/19 10:36:17;;;;;;;4.57;2.30;;;22.40;50.50;;;;;;5034890;28;20196;-81
2023/10/19 10:38:45;;;;;;;3.42;2.20;;;22.30;50.40;;;;;;5035160;28;20200;-80
2023/10/19 10:41:12;;;;;;;2.95;2.45;;;22.30;50.40;;;;;;5034860;28;20216;-81
2023/10/19 10:43:52;;;;;;;3.95;2.40;;;22.30;50.50;;;;;;5034636;28;20191;-81
2023/10/19 10:46:19;;;;;;;2.33;2.13;;;22.30;50.60;;;;;;5035077;28;20192;-81
2023/10/19 10:48:48;;;;;;;2.50;2.30;;;22.30;50.50;;;;;;5034904;28;20203;-81
2023/10/19 10:51:21;;;;;;;4.72;2.47;;;22.30;50.60;;;;;;5017322;28;20224;-81
2023/10/19 10:53:49;;;;;;;2.50;2.30;;;22.30;50.60;;;;;;5035673;28;20204;-81
2023/10/19 10:56:16;;;;;;;2.42;2.17;;;22.30;50.70;;;;;;5034957;28;20662;-81
2023/10/19 10:58:44;;;;;;;2.95;2.63;;;22.20;50.70;;;;;;5034736;28;20204;-81
2023/10/19 11:01:11;;;;;;;2.85;2.33;;;22.20;50.80;;;;;;5034642;28;20228;-81
2023/10/19 11:03:38;;;;;;;3.00;2.40;;;22.20;50.80;;;;;;5034409;28;20196;-81
2023/10/19 11:06:07;;;;;;;2.50;2.30;;;22.10;50.80;;;;;;5017995;28;20318;-81
2023/10/19 11:08:36;;;;;;;2.50;2.22;;;22.20;50.90;;;;;;5034259;28;20203;-81
2023/10/19 11:11:05;;;;;;;2.38;2.08;;;22.10;51.00;;;;;;5034813;28;20216;-81
2023/10/19 11:13:33;;;;;;;3.33;2.33;;;22.10;51.00;;;;;;5018339;28;20202;-81
2023/10/19 11:16:01;;;;;;;2.75;2.10;;;22.10;51.10;;;;;;5034029;28;20232;-81
2023/10/19 11:18:32;;;;;;;2.90;2.40;;;22.10;51.20;;;;;;5034221;28;20240;-81
2023/10/19 11:21:04;;;;;;;3.13;2.08;;;22.10;51.20;;;;;;5035971;28;20237;-81
2023/10/19 11:23:43;;;;;;;2.60;2.40;;;22.00;51.20;;;;;;5030528;28;20196;-79
2023/10/19 11:26:11;;;;;;;2.45;2.20;;;22.00;51.20;;;;;;5035678;28;20249;-81
2023/10/19 11:28:42;;;;;;;2.88;2.10;;;22.00;51.30;;;;;;5035139;28;20211;-81
2023/10/19 11:31:13;;;;;;;2.38;2.08;;;22.00;51.30;;;;;;5035511;28;20212;-81
2023/10/19 11:33:41;;;;;;;2.60;2.40;;;22.00;51.40;;;;;;5034109;28;20192;-81
2023/10/19 11:36:08;;;;;;;2.40;2.17;;;22.00;51.50;;;;;;5018281;28;20203;-81
2023/10/19 11:38:37;;;;;;;2.45;2.25;;;21.90;51.50;;;;;;5034309;28;20212;-81
2023/10/19 11:41:06;;;;;;;2.50;2.30;;;21.80;51.50;;;;;;5034792;28;20211;-81
2023/10/19 11:43:34;;;;;;;2.20;2.00;;;21.80;51.60;;;;;;5035494;28;20192;-81
2023/10/19 11:46:01;;;;;;;2.47;2.28;;;21.80;51.70;;;;;;5034693;28;20208;-81
2023/10/19 11:48:28;;;;;;;2.08;1.92;;;21.80;51.60;;;;;;5049695;28;20184;-81
2023/10/19 11:50:55;;;;;;;2.22;2.00;;;21.70;51.60;;;;;;5058241;28;20255;-81
2023/10/19 11:53:21;;;;;;;2.15;2.00;;;21.70;51.70;;;;;;5058070;28;20255;-81
2023/10/19 11:55:49;;;;;;;2.30;2.10;;;21.70;51.80;;;;;;5058184;28;20212;-81
2023/10/19 11:58:17;;;;;;;2.42;2.22;;;21.70;51.90;;;;;;5046185;28;20239;-81
2023/10/19 12:00:46;;;;;;;2.95;2.50;;;21.70;51.80;;;;;;5032830;28;20292;-81
2023/10/19 12:03:13;;;;;;;2.78;2.40;;;21.70;51.90;;;;;;5032588;28;20257;-81
2023/10/19 12:05:42;;;;;;;2.83;2.00;;;21.70;52.10;;;;;;5033441;28;20199;-81
2023/10/19 12:08:09;;;;;;;2.92;2.38;;;21.70;52.10;;;;;;5032949;28;20206;-81
2023/10/19 12:10:36;;;;;;;2.35;2.15;;;21.70;52.20;;;;;;5034092;28;20258;-81
2023/10/19 12:13:05;;;;;;;3.40;2.25;;;21.60;52.10;;;;;;5033144;28;20295;-81
2023/10/19 12:15:34;;;;;;;2.40;2.20;;;21.60;52.20;;;;;;5032833;28;20682;-80
2023/10/19 12:18:01;;;;;;;2.50;2.30;;;21.60;52.10;;;;;;5032934;28;20216;-80
2023/10/19 12:20:30;;;;;;;3.45;2.70;;;21.60;52.10;;;;;;5032812;28;20224;-80
2023/10/19 12:22:58;;;;;;;3.38;2.50;;;21.60;52.30;;;;;;5033150;28;20202;-80
2023/10/19 12:25:29;;;;;;;2.63;2.42;;;21.60;52.40;;;;;;5033462;28;20250;-81
2023/10/19 12:27:58;;;;;;;2.65;2.40;;;21.60;52.40;;;;;;5032955;28;20220;-81
2023/10/19 12:30:31;;;;;;;2.92;2.40;;;21.60;52.40;;;;;;5032469;28;20215;-81
2023/10/19 12:33:04;;;;;;;2.40;2.20;;;21.60;52.20;;;;;;5017059;28;20200;-81
2023/10/19 12:35:44;;;;;;;2.92;2.42;;;21.50;52.10;;;;;;5033044;28;20192;-81
2023/10/19 12:38:16;;;;;;;2.65;2.17;;;21.50;52.10;;;;;;5032780;28;20588;-81
2023/10/19 12:40:46;;;;;;;2.75;2.50;;;21.50;52.00;;;;;;5032886;28;20718;-81
2023/10/19 12:43:13;;;;;;;2.90;2.60;;;21.60;52.10;;;;;;5034497;28;20192;-81
2023/10/19 12:45:40;;;;;;;2.20;2.05;;;21.60;52.00;;;;;;5016486;28;20199;-81
2023/10/19 12:48:10;;;;;;;4.03;2.22;;;21.70;51.90;;;;;;5033492;28;20219;-81
2023/10/19 12:50:38;;;;;;;4.95;2.50;;;21.70;51.70;;;;;;5016697;28;20725;-81
2023/10/19 12:53:07;;;;;;;2.30;2.10;;;21.70;51.90;;;;;;5032617;28;20655;-81
2023/10/19 12:55:34;;;;;;;2.60;2.40;;;21.70;51.70;;;;;;5032806;28;20196;-81
2023/10/19 12:58:07;;;;;;;2.38;2.17;;;21.70;51.80;;;;;;5033640;28;20737;-81
2023/10/19 13:00:40;;;;;;;2.92;2.20;;;21.60;51.70;;;;;;5032392;28;20224;-81